createdAt,value
2019-02-26T00:01:14.409Z,57.30
2019-02-26T00:03:43.454Z,58.30
2019-02-26T00:06:12.938Z,56.70
2019-02-26T00:08:42.449Z,57.30
2019-02-26T00:11:11.944Z,59.50
2019-02-26T00:13:41.473Z,58.10
2019-02-26T00:16:12.948Z,59.70
2019-02-26T00:18:42.720Z,55.50
2019-02-26T00:21:12.279Z,55.80
2019-02-26T00:23:42.784Z,55.60
2019-02-26T00:26:17.170Z,57.20
2019-02-26T00:28:45.756Z,56.60
2019-02-26T00:31:15.262Z,55.70
2019-02-26T00:33:44.814Z,56.10
2019-02-26T00:36:15.438Z,56.50
2019-02-26T00:38:45.134Z,60.20
2019-02-26T00:41:14.652Z,58.00
2019-02-26T00:43:44.170Z,61.30
2019-02-26T00:46:13.638Z,62.30
2019-02-26T00:48:43.217Z,58.70
2019-02-26T00:51:12.690Z,59.00
2019-02-26T00:53:42.233Z,62.10
2019-02-26T00:56:11.740Z,57.60
2019-02-26T00:58:42.211Z,61.00
2019-02-26T01:01:14.438Z,58.70
2019-02-26T01:03:45.281Z,60.10
2019-02-26T01:06:14.774Z,64.40
2019-02-26T01:08:44.908Z,57.30
2019-02-26T01:11:15.465Z,59.20
2019-02-26T01:13:44.934Z,61.30
2019-02-26T01:16:14.453Z,61.80
2019-02-26T01:18:44.477Z,58.60
2019-02-26T01:21:15.145Z,56.60
2019-02-26T01:23:44.695Z,56.60
2019-02-26T01:26:14.227Z,59.70
2019-02-26T01:28:46.154Z,58.40
2019-02-26T01:31:14.838Z,58.60
2019-02-26T01:33:46.250Z,60.60
2019-02-26T01:36:16.220Z,61.70
2019-02-26T01:38:48.688Z,59.00
2019-02-26T01:41:18.651Z,59.50
2019-02-26T01:43:48.955Z,60.60
2019-02-26T01:46:18.844Z,59.00
2019-02-26T01:48:48.472Z,60.00
2019-02-26T01:51:19.369Z,63.30
2019-02-26T01:53:51.401Z,60.80
2019-02-26T01:56:20.550Z,62.10
2019-02-26T01:58:56.298Z,58.00
2019-02-26T02:01:21.999Z,60.20
2019-02-26T02:03:53.826Z,62.80
2019-02-26T02:06:23.522Z,63.30
2019-02-26T02:08:55.539Z,62.50
2019-02-26T02:11:28.253Z,58.70
2019-02-26T02:13:55.420Z,62.20
2019-02-26T02:16:26.803Z,60.30
2019-02-26T02:18:58.206Z,61.20
2019-02-26T02:21:29.186Z,63.30
2019-02-26T02:23:58.550Z,61.00
2019-02-26T02:26:28.066Z,60.80
2019-02-26T02:28:57.577Z,64.30
2019-02-26T02:31:30.315Z,64.00
2019-02-26T02:33:58.251Z,62.90
2019-02-26T02:36:27.707Z,62.40
2019-02-26T02:38:57.220Z,63.20
2019-02-26T02:41:26.731Z,61.50
2019-02-26T02:43:56.268Z,62.60
2019-02-26T02:46:25.733Z,63.10
2019-02-26T02:48:55.262Z,60.10
2019-02-26T02:51:25.708Z,60.70
2019-02-26T02:53:57.333Z,61.20
2019-02-26T02:56:27.121Z,59.40
2019-02-26T02:58:56.627Z,61.50
2019-02-26T03:01:28.696Z,66.10
2019-02-26T03:03:59.028Z,63.60
2019-02-26T03:06:30.582Z,63.50
2019-02-26T03:08:59.681Z,61.10
2019-02-26T03:11:29.169Z,62.90
2019-02-26T03:13:58.676Z,60.30
2019-02-26T03:16:28.162Z,65.40
2019-02-26T03:18:57.682Z,64.50
2019-02-26T03:21:27.764Z,59.80
2019-02-26T03:24:00.185Z,60.10
2019-02-26T03:26:29.553Z,63.50
2019-02-26T03:28:59.026Z,63.30
2019-02-26T03:31:33.872Z,62.50
2019-02-26T03:34:08.241Z,63.00
2019-02-26T03:36:31.505Z,67.80
2019-02-26T03:39:02.829Z,61.00
2019-02-26T03:41:32.522Z,60.10
2019-02-26T03:44:03.294Z,62.80
2019-02-26T03:46:33.194Z,60.80
2019-02-26T03:49:03.596Z,62.10
2019-02-26T03:51:33.329Z,65.10
2019-02-26T03:54:03.014Z,61.80
2019-02-26T03:56:32.532Z,61.70
2019-02-26T03:59:05.765Z,64.20
2019-02-26T04:01:33.252Z,67.50
2019-02-26T04:04:04.796Z,66.40
2019-02-26T04:06:35.997Z,60.40
2019-02-26T04:09:08.352Z,60.10
2019-02-26T04:11:39.615Z,67.00
2019-02-26T04:14:12.146Z,63.80
2019-02-26T04:16:41.138Z,64.90
2019-02-26T04:19:10.981Z,62.10
2019-02-26T04:22:18.779Z,62.90
2019-02-26T04:24:47.418Z,64.30
2019-02-26T04:27:48.019Z,62.90
2019-02-26T04:30:55.313Z,66.30
2019-02-26T04:34:10.759Z,66.50
2019-02-26T04:37:19.813Z,64.50
2019-02-26T04:40:28.368Z,61.40
2019-02-26T04:43:52.522Z,63.50
2019-02-26T04:46:34.318Z,62.30
2019-02-26T04:49:04.235Z,63.10
2019-02-26T04:51:36.111Z,62.80
2019-02-26T04:54:05.026Z,66.20
2019-02-26T04:56:37.087Z,63.50
2019-02-26T04:59:07.058Z,67.50
2019-02-26T05:01:36.846Z,64.00
2019-02-26T05:04:06.383Z,63.20
2019-02-26T05:06:35.870Z,64.40
2019-02-26T05:09:08.000Z,66.70
2019-02-26T05:11:40.590Z,68.40
2019-02-26T05:14:09.111Z,67.40
2019-02-26T05:16:40.330Z,64.90
2019-02-26T05:19:10.545Z,67.90
2019-02-26T05:21:41.304Z,63.20
2019-02-26T05:24:14.549Z,66.00
2019-02-26T05:26:41.985Z,66.40
2019-02-26T05:29:13.480Z,68.60
2019-02-26T05:31:43.341Z,70.10
2019-02-26T05:34:15.193Z,67.40
2019-02-26T05:36:46.148Z,67.80
2019-02-26T05:39:18.100Z,67.90
2019-02-26T05:41:46.263Z,67.00
2019-02-26T05:44:15.744Z,68.70
2019-02-26T05:46:47.308Z,69.00
2019-02-26T05:49:19.213Z,71.10
2019-02-26T05:51:47.547Z,66.30
2019-02-26T05:54:18.600Z,65.80
2019-02-26T05:56:49.839Z,66.60
2019-02-26T05:59:21.737Z,63.40
2019-02-26T06:01:53.340Z,71.90
2019-02-26T06:04:21.671Z,66.50
2019-02-26T06:06:55.517Z,68.90
2019-02-26T06:09:25.390Z,72.70
2019-02-26T06:11:53.545Z,74.90
2019-02-26T06:14:25.471Z,67.30
2019-02-26T06:16:55.780Z,66.10
2019-02-26T06:19:45.388Z,72.90
2019-02-26T06:22:17.494Z,66.60
2019-02-26T06:24:46.058Z,67.30
2019-02-26T06:27:18.735Z,66.90
2019-02-26T06:29:46.728Z,73.00
2019-02-26T06:32:16.742Z,68.10
2019-02-26T06:34:46.266Z,69.30
2019-02-26T06:37:20.436Z,71.90
2019-02-26T06:39:52.633Z,68.70
2019-02-26T06:42:21.154Z,68.50
2019-02-26T06:44:51.409Z,67.60
2019-02-26T06:47:23.345Z,68.90
2019-02-26T06:49:52.699Z,69.50
2019-02-26T06:52:22.374Z,68.40
2019-02-26T06:54:55.628Z,63.30
2019-02-26T06:57:23.047Z,70.70
2019-02-26T06:59:53.649Z,70.00
2019-02-26T07:02:28.254Z,67.00
2019-02-26T07:04:54.916Z,66.30
2019-02-26T07:07:24.428Z,61.70
2019-02-26T07:09:57.450Z,64.20
2019-02-26T07:12:26.512Z,64.60
2019-02-26T07:14:58.001Z,62.90
2019-02-26T07:17:31.635Z,60.50
2019-02-26T07:20:00.148Z,59.40
2019-02-26T07:22:29.647Z,59.50
2019-02-26T07:24:59.122Z,58.30
2019-02-26T07:27:29.611Z,59.40
2019-02-26T07:29:59.790Z,62.90
2019-02-26T07:32:29.307Z,60.20
2019-02-26T07:34:58.852Z,60.00
2019-02-26T07:37:29.227Z,59.00
2019-02-26T07:39:59.488Z,56.90
2019-02-26T07:42:32.721Z,54.80
2019-02-26T07:45:00.298Z,55.20
2019-02-26T07:47:31.418Z,53.80
2019-02-26T07:50:01.935Z,54.40
2019-02-26T07:52:33.081Z,56.50
2019-02-26T07:55:03.703Z,55.30
2019-02-26T07:57:33.910Z,58.10
2019-02-26T08:00:03.426Z,57.70
2019-02-26T08:02:34.934Z,57.60
2019-02-26T08:05:04.323Z,53.30
2019-02-26T08:07:33.894Z,56.70
2019-02-26T08:10:03.395Z,57.90
2019-02-26T08:12:35.684Z,58.10
2019-02-26T08:15:07.800Z,57.70
2019-02-26T08:17:35.910Z,58.20
2019-02-26T08:20:08.157Z,58.20
2019-02-26T08:22:37.304Z,58.80
2019-02-26T08:25:06.919Z,55.00
2019-02-26T08:27:37.902Z,52.80
2019-02-26T08:30:12.641Z,50.70
2019-02-26T08:32:41.996Z,50.40
2019-02-26T08:35:11.816Z,49.70
2019-02-26T08:37:41.379Z,47.80
2019-02-26T08:40:12.952Z,50.80
2019-02-26T08:42:42.496Z,52.30
2019-02-26T08:45:17.777Z,52.50
2019-02-26T08:47:48.087Z,49.30
2019-02-26T08:50:17.606Z,49.50
2019-02-26T08:52:50.033Z,51.50
2019-02-26T08:55:21.350Z,50.80
2019-02-26T08:57:51.289Z,49.90
2019-02-26T09:00:20.571Z,50.20
2019-02-26T09:02:53.789Z,53.00
2019-02-26T09:05:23.314Z,53.10
2019-02-26T09:07:52.433Z,54.40
2019-02-26T09:10:23.397Z,53.30
2019-02-26T09:12:53.043Z,52.40
2019-02-26T09:15:22.577Z,51.90
2019-02-26T09:17:52.058Z,50.40
2019-02-26T09:20:21.546Z,47.50
2019-02-26T09:22:53.712Z,46.90
2019-02-26T09:25:25.491Z,45.90
2019-02-26T09:27:53.428Z,47.30
2019-02-26T09:30:22.923Z,48.90
2019-02-26T09:32:52.641Z,49.70
2019-02-26T09:35:26.853Z,47.10
2019-02-26T09:37:57.665Z,43.70
2019-02-26T09:40:26.638Z,48.30
2019-02-26T09:42:58.121Z,47.20
2019-02-26T09:45:29.955Z,45.30
2019-02-26T09:47:58.441Z,47.70
2019-02-26T09:50:27.941Z,41.20
2019-02-26T09:52:59.076Z,46.00
2019-02-26T09:55:28.681Z,44.30
2019-02-26T09:57:58.203Z,47.00
2019-02-26T10:00:29.542Z,43.90
2019-02-26T10:02:58.873Z,41.10
2019-02-26T10:05:28.408Z,41.00
2019-02-26T10:07:59.965Z,42.90
2019-02-26T10:10:31.088Z,41.90
2019-02-26T10:13:02.905Z,45.70
2019-02-26T10:15:32.416Z,41.60
2019-02-26T10:18:06.197Z,43.30
2019-02-26T10:20:33.891Z,45.90
2019-02-26T10:23:06.084Z,49.10
2019-02-26T10:25:37.114Z,48.40
2019-02-26T10:28:09.610Z,44.30
2019-02-26T10:30:41.595Z,41.40
2019-02-26T10:33:10.439Z,44.70
2019-02-26T10:35:43.764Z,41.40
2019-02-26T10:38:11.718Z,39.30
2019-02-26T10:40:53.263Z,42.90
2019-02-26T10:43:12.452Z,44.70
2019-02-26T10:45:44.860Z,42.60
2019-02-26T10:48:13.765Z,42.70
2019-02-26T10:50:46.910Z,41.70
2019-02-26T10:53:18.872Z,44.40
2019-02-26T10:55:46.668Z,45.30
2019-02-26T10:58:16.197Z,43.20
2019-02-26T11:00:46.793Z,43.40
2019-02-26T11:03:17.400Z,43.50
2019-02-26T11:05:48.632Z,38.90
2019-02-26T11:08:20.623Z,44.60
2019-02-26T11:10:52.186Z,40.10
2019-02-26T11:13:24.935Z,39.20
2019-02-26T11:15:53.940Z,41.50
2019-02-26T11:18:23.636Z,42.80
2019-02-26T11:20:56.030Z,42.20
2019-02-26T11:23:30.759Z,40.10
2019-02-26T11:25:55.542Z,41.20
2019-02-26T11:28:29.695Z,39.80
2019-02-26T11:30:56.671Z,43.90
2019-02-26T11:33:26.327Z,39.50
2019-02-26T11:35:55.813Z,39.50
2019-02-26T11:38:25.314Z,38.20
2019-02-26T11:40:54.871Z,40.90
2019-02-26T11:43:27.859Z,41.00
2019-02-26T11:45:56.634Z,42.50
2019-02-26T11:48:28.909Z,38.50
2019-02-26T11:51:00.764Z,44.40
2019-02-26T11:53:29.894Z,42.80
2019-02-26T11:56:01.850Z,37.70
2019-02-26T11:58:31.117Z,37.00
2019-02-26T12:01:02.091Z,42.10
2019-02-26T12:03:34.074Z,40.30
2019-02-26T12:06:02.781Z,38.10
2019-02-26T12:08:32.298Z,40.90
2019-02-26T12:11:04.052Z,42.30
2019-02-26T12:13:32.946Z,41.30
2019-02-26T12:16:02.467Z,42.30
2019-02-26T12:18:34.070Z,35.60
2019-02-26T12:21:05.391Z,35.40
2019-02-26T12:23:34.948Z,39.90
2019-02-26T12:26:05.571Z,40.00
2019-02-26T12:28:37.662Z,37.80
2019-02-26T12:31:08.093Z,41.20
2019-02-26T12:33:37.525Z,39.70
2019-02-26T12:36:08.012Z,41.20
2019-02-26T12:38:38.244Z,41.20
2019-02-26T12:41:08.843Z,39.30
2019-02-26T12:43:42.631Z,38.80
2019-02-26T12:46:10.116Z,39.50
2019-02-26T12:48:41.758Z,39.20
2019-02-26T12:51:10.827Z,36.60
2019-02-26T12:53:49.192Z,39.10
2019-02-26T12:56:17.646Z,40.60
2019-02-26T12:58:48.552Z,40.20
2019-02-26T13:01:18.402Z,40.30
2019-02-26T13:03:53.962Z,39.90
2019-02-26T13:06:22.773Z,34.90
2019-02-26T13:08:50.856Z,37.40
2019-02-26T13:11:24.145Z,36.10
2019-02-26T13:13:53.263Z,41.90
2019-02-26T13:16:22.980Z,41.70
2019-02-26T13:18:56.467Z,40.30
2019-02-26T13:21:23.639Z,37.00
2019-02-26T13:23:58.514Z,34.90
2019-02-26T13:26:24.293Z,36.30
2019-02-26T13:28:59.537Z,41.20
2019-02-26T13:31:26.887Z,37.90
2019-02-26T13:33:56.448Z,38.10
2019-02-26T13:36:25.931Z,36.20
2019-02-26T13:38:55.457Z,40.30
2019-02-26T13:41:30.044Z,40.10
2019-02-26T13:43:56.117Z,39.40
2019-02-26T13:46:25.774Z,37.80
2019-02-26T13:48:55.328Z,37.00
2019-02-26T13:51:24.859Z,41.50
2019-02-26T13:53:54.398Z,37.70
2019-02-26T13:56:23.953Z,36.60
2019-02-26T13:58:53.459Z,34.00
2019-02-26T14:01:23.134Z,40.60
2019-02-26T14:03:52.654Z,40.00
2019-02-26T14:06:22.163Z,38.80
2019-02-26T14:08:51.948Z,41.60
2019-02-26T14:11:21.511Z,39.90
2019-02-26T14:13:51.034Z,39.70
2019-02-26T14:16:20.556Z,35.00
2019-02-26T14:18:50.101Z,40.10
2019-02-26T14:21:19.606Z,40.80
2019-02-26T14:23:49.169Z,40.30
2019-02-26T14:26:18.684Z,38.40
2019-02-26T14:28:48.214Z,37.50
2019-02-26T14:31:17.711Z,37.70
2019-02-26T14:33:47.254Z,37.80
2019-02-26T14:36:16.756Z,38.30
2019-02-26T14:38:46.390Z,40.50
2019-02-26T14:41:15.899Z,38.90
2019-02-26T14:43:45.646Z,37.10
2019-02-26T14:46:15.196Z,39.70
2019-02-26T14:48:44.733Z,38.70
2019-02-26T14:51:14.211Z,40.00
2019-02-26T14:53:43.701Z,38.10
2019-02-26T14:56:13.252Z,40.10
2019-02-26T14:58:42.719Z,41.40
2019-02-26T15:01:12.235Z,37.70
2019-02-26T15:03:41.778Z,42.50
2019-02-26T15:06:11.545Z,39.40
2019-02-26T15:08:41.370Z,38.30
2019-02-26T15:11:11.083Z,42.10
2019-02-26T15:13:40.645Z,41.40
2019-02-26T15:16:10.112Z,39.70
2019-02-26T15:18:39.631Z,41.10
2019-02-26T15:21:09.173Z,38.20
2019-02-26T15:23:38.710Z,39.00
2019-02-26T15:26:08.482Z,40.60
2019-02-26T15:28:38.007Z,39.80
2019-02-26T15:31:07.514Z,35.70
2019-02-26T15:33:37.037Z,40.00
2019-02-26T15:36:06.540Z,40.40
2019-02-26T15:38:36.014Z,41.20
2019-02-26T15:41:05.879Z,39.60
2019-02-26T15:43:35.415Z,40.10
2019-02-26T15:46:04.958Z,39.70
2019-02-26T15:48:36.478Z,40.60
2019-02-26T15:51:13.946Z,40.10
2019-02-26T15:53:36.791Z,40.10
2019-02-26T15:56:06.269Z,39.00
2019-02-26T15:58:35.822Z,41.20
2019-02-26T16:01:09.535Z,40.80
2019-02-26T16:03:39.090Z,41.00
2019-02-26T16:06:08.654Z,40.80
2019-02-26T16:08:38.645Z,40.00
2019-02-26T16:11:08.194Z,38.20
2019-02-26T16:13:37.750Z,38.60
2019-02-26T16:16:07.267Z,41.00
2019-02-26T16:18:36.816Z,41.90
2019-02-26T16:21:06.299Z,41.10
2019-02-26T16:23:35.945Z,40.40
2019-02-26T16:26:07.785Z,39.40
2019-02-26T16:28:36.628Z,41.20
2019-02-26T16:31:06.134Z,41.50
2019-02-26T16:33:35.677Z,41.30
2019-02-26T16:36:05.302Z,42.40
2019-02-26T16:38:35.034Z,42.10
2019-02-26T16:41:04.918Z,42.10
2019-02-26T16:43:35.006Z,42.50
2019-02-26T16:46:08.309Z,42.80
2019-02-26T16:48:35.711Z,41.10
2019-02-26T16:51:05.215Z,44.50
2019-02-26T16:53:34.785Z,45.10
2019-02-26T16:56:04.398Z,40.40
2019-02-26T16:58:35.598Z,45.30
2019-02-26T17:01:05.931Z,45.20
2019-02-26T17:03:35.606Z,46.10
2019-02-26T17:06:05.142Z,46.10
2019-02-26T17:08:34.682Z,45.90
2019-02-26T17:11:04.285Z,45.30
2019-02-26T17:13:33.770Z,45.10
2019-02-26T17:16:03.379Z,45.10
2019-02-26T17:18:32.855Z,45.50
2019-02-26T17:21:02.395Z,45.30
2019-02-26T17:23:31.923Z,45.60
2019-02-26T17:26:01.830Z,45.70
2019-02-26T17:28:31.379Z,46.30
2019-02-26T17:31:00.917Z,46.00
2019-02-26T17:33:30.485Z,46.20
2019-02-26T17:36:02.022Z,46.80
2019-02-26T17:38:31.129Z,47.20
2019-02-26T17:41:00.666Z,47.40
2019-02-26T17:43:30.155Z,47.30
2019-02-26T17:45:59.674Z,47.50
2019-02-26T17:48:31.059Z,47.60
2019-02-26T17:51:00.350Z,47.80
2019-02-26T17:53:29.944Z,47.30
2019-02-26T17:55:59.465Z,48.00
2019-02-26T17:58:28.994Z,48.10
2019-02-26T18:00:58.874Z,46.50
2019-02-26T18:03:28.398Z,48.10
2019-02-26T18:05:57.942Z,49.20
2019-02-26T18:08:27.597Z,49.70
2019-02-26T18:10:57.141Z,49.00
2019-02-26T18:13:26.692Z,49.40
2019-02-26T18:15:56.963Z,49.40
2019-02-26T18:18:26.902Z,49.60
2019-02-26T18:20:56.471Z,49.70
2019-02-26T18:23:25.990Z,49.60
2019-02-26T18:25:55.482Z,49.40
2019-02-26T18:28:25.050Z,49.60
2019-02-26T18:30:54.565Z,50.00
2019-02-26T18:33:24.047Z,50.20
2019-02-26T18:35:53.578Z,50.30
2019-02-26T18:38:23.093Z,50.40
2019-02-26T18:40:52.555Z,50.40
2019-02-26T18:43:22.100Z,50.20
2019-02-26T18:45:51.587Z,50.50
2019-02-26T18:48:21.223Z,51.00
2019-02-26T18:50:50.729Z,51.20
2019-02-26T18:53:20.226Z,51.30
2019-02-26T18:55:49.730Z,51.00
2019-02-26T18:58:19.256Z,50.60
2019-02-26T19:00:48.746Z,50.50
2019-02-26T19:03:18.293Z,50.90
2019-02-26T19:05:47.787Z,50.90
2019-02-26T19:08:18.952Z,50.90
2019-02-26T19:10:50.955Z,51.10
2019-02-26T19:13:20.336Z,51.20
2019-02-26T19:15:49.851Z,51.50
2019-02-26T19:18:19.374Z,51.70
2019-02-26T19:20:49.604Z,52.50
2019-02-26T19:23:19.231Z,52.10
2019-02-26T19:25:48.766Z,52.00
2019-02-26T19:28:18.313Z,51.80
2019-02-26T19:30:47.821Z,51.90
2019-02-26T19:33:18.723Z,53.00
2019-02-26T19:35:48.517Z,53.10
2019-02-26T19:38:18.011Z,52.30
2019-02-26T19:40:47.495Z,52.70
2019-02-26T19:43:17.057Z,52.70
2019-02-26T19:45:46.547Z,52.20
2019-02-26T19:48:16.041Z,52.10
2019-02-26T19:50:48.560Z,52.20
2019-02-26T19:53:16.717Z,52.30
2019-02-26T19:55:48.997Z,52.40
2019-02-26T19:58:17.409Z,53.80
2019-02-26T20:00:46.921Z,56.00
2019-02-26T20:03:16.397Z,55.70
2019-02-26T20:05:46.602Z,55.90
2019-02-26T20:08:16.607Z,55.20
2019-02-26T20:10:48.739Z,53.80
2019-02-26T20:13:17.304Z,53.20
2019-02-26T20:15:46.829Z,55.10
2019-02-26T20:18:20.623Z,52.90
2019-02-26T20:20:47.588Z,53.40
2019-02-26T20:23:17.102Z,56.50
2019-02-26T20:25:46.932Z,53.40
2019-02-26T20:28:16.570Z,53.10
2019-02-26T20:30:46.052Z,53.10
2019-02-26T20:33:15.660Z,54.80
2019-02-26T20:35:45.872Z,53.40
2019-02-26T20:38:15.451Z,53.20
2019-02-26T20:40:48.702Z,56.30
2019-02-26T20:43:16.141Z,53.50
2019-02-26T20:45:45.669Z,53.20
2019-02-26T20:48:15.192Z,53.20
2019-02-26T20:50:44.734Z,53.30
2019-02-26T20:53:14.242Z,53.50
2019-02-26T20:55:52.061Z,53.60
2019-02-26T20:58:14.892Z,53.60
2019-02-26T21:00:44.435Z,53.60
2019-02-26T21:03:13.926Z,53.60
2019-02-26T21:05:44.833Z,53.70
2019-02-26T21:08:16.683Z,54.20
2019-02-26T21:10:48.038Z,54.60
2019-02-26T21:13:17.421Z,57.50
2019-02-26T21:15:47.397Z,58.10
2019-02-26T21:18:17.583Z,58.30
2019-02-26T21:20:49.148Z,57.10
2019-02-26T21:23:18.214Z,58.10
2019-02-26T21:25:47.691Z,59.10
2019-02-26T21:28:17.238Z,58.10
2019-02-26T21:30:46.743Z,55.00
2019-02-26T21:33:16.223Z,55.70
2019-02-26T21:35:45.757Z,56.30
2019-02-26T21:38:15.255Z,57.10
2019-02-26T21:40:48.693Z,58.50
2019-02-26T21:43:16.059Z,58.60
2019-02-26T21:45:49.089Z,55.60
2019-02-26T21:48:16.820Z,56.60
2019-02-26T21:50:46.346Z,58.50
2019-02-26T21:53:16.466Z,58.80
2019-02-26T21:55:46.147Z,57.20
2019-02-26T21:58:17.146Z,55.60
2019-02-26T22:00:46.651Z,59.80
2019-02-26T22:03:16.168Z,61.10
2019-02-26T22:05:45.690Z,60.80
2019-02-26T22:08:15.217Z,62.40
2019-02-26T22:10:44.756Z,63.50
2019-02-26T22:13:14.290Z,66.50
2019-02-26T22:15:44.701Z,67.90
2019-02-26T22:18:14.701Z,67.30
2019-02-26T22:20:44.238Z,66.90
2019-02-26T22:23:14.962Z,64.40
2019-02-26T22:25:44.500Z,63.50
2019-02-26T22:28:14.018Z,57.30
2019-02-26T22:30:43.515Z,56.80
2019-02-26T22:33:13.054Z,60.20
2019-02-26T22:35:42.583Z,61.20
2019-02-26T22:38:17.636Z,64.80
2019-02-26T22:40:52.508Z,66.50
2019-02-26T22:43:26.710Z,64.40
2019-02-26T22:46:01.045Z,66.60
2019-02-26T22:48:38.237Z,67.10
2019-02-26T22:51:07.166Z,66.10
2019-02-26T22:53:37.157Z,57.60
2019-02-26T22:56:06.707Z,57.20
2019-02-26T22:58:36.319Z,57.00
2019-02-26T23:01:37.275Z,57.90
2019-02-26T23:04:06.733Z,57.10
2019-02-26T23:06:36.577Z,57.50
2019-02-26T23:09:08.434Z,57.20
2019-02-26T23:11:37.979Z,60.70
2019-02-26T23:14:07.942Z,65.70
2019-02-26T23:16:37.502Z,60.20
2019-02-26T23:19:07.345Z,62.60
2019-02-26T23:21:37.282Z,64.20
2019-02-26T23:24:07.525Z,63.80
2019-02-26T23:26:41.782Z,67.60
2019-02-26T23:29:08.671Z,68.60
2019-02-26T23:31:38.263Z,68.50
2019-02-26T23:34:07.818Z,66.50
2019-02-26T23:36:37.302Z,69.00
2019-02-26T23:39:09.311Z,69.60
2019-02-26T23:41:38.797Z,69.40
2019-02-26T23:44:08.371Z,70.90
2019-02-26T23:46:38.086Z,69.60
2019-02-26T23:49:07.576Z,69.20
2019-02-26T23:51:37.129Z,64.10
2019-02-26T23:54:07.369Z,70.10
2019-02-26T23:56:37.475Z,69.80
2019-02-26T23:59:07.025Z,69.60
